createdAt,value
2023-02-23T00:04:55.995Z,1018.2
2023-02-23T00:10:14.467Z,1018.1
2023-02-23T00:15:54.118Z,1018.2
2023-02-23T00:21:49.053Z,1018.2
2023-02-23T00:27:11.330Z,1018.1
2023-02-23T00:32:38.524Z,1018.2
2023-02-23T00:38:02.833Z,1018.2
2023-02-23T00:43:45.789Z,1018.1
2023-02-23T00:49:10.828Z,1018.2
2023-02-23T00:54:52.705Z,1018.1
2023-02-23T01:00:27.386Z,1018.2
2023-02-23T01:06:09.794Z,1018.2
2023-02-23T01:11:30.443Z,1018
2023-02-23T01:17:04.773Z,1018
2023-02-23T01:22:56.209Z,1018
2023-02-23T01:28:28.460Z,1018.1
2023-02-23T01:33:46.057Z,1018.1
2023-02-23T01:39:25.954Z,1018
2023-02-23T01:44:42.360Z,1018.1
2023-02-23T01:50:23.701Z,1018.1
2023-02-23T01:55:50.587Z,1018
2023-02-23T02:01:22.940Z,1018
2023-02-23T02:06:58.197Z,1018
2023-02-23T02:12:57.833Z,1018
2023-02-23T02:18:20.590Z,1017.8
2023-02-23T02:23:57.272Z,1017.8
2023-02-23T02:29:24.145Z,1017.9
2023-02-23T02:34:55.612Z,1017.8
2023-02-23T02:40:35.751Z,1017.7
2023-02-23T02:46:06.720Z,1017.8
2023-02-23T02:51:34.243Z,1017.7
2023-02-23T02:57:00.532Z,1017.7
2023-02-23T03:02:56.433Z,1017.6
2023-02-23T03:08:27.092Z,1017.7
2023-02-23T03:14:04.088Z,1017.6
2023-02-23T03:19:23.614Z,1017.6
2023-02-23T03:24:59.232Z,1017.6
2023-02-23T03:30:33.268Z,1017.7
2023-02-23T03:35:59.583Z,1017.6
2023-02-23T03:41:52.435Z,1017.6
2023-02-23T03:47:12.903Z,1017.7
2023-02-23T03:52:36.180Z,1017.7
2023-02-23T03:58:22.871Z,1017.7
2023-02-23T04:04:06.203Z,1017.7
2023-02-23T04:09:12.398Z,1017.8
2023-02-23T04:15:12.734Z,1017.7
2023-02-23T04:20:25.143Z,1017.7
2023-02-23T04:26:14.615Z,1017.6
2023-02-23T04:31:53.410Z,1017.6
2023-02-23T04:37:20.639Z,1017.7
2023-02-23T04:42:51.994Z,1017.7
2023-02-23T04:48:15.471Z,1017.7
2023-02-23T04:54:00.737Z,1017.8
2023-02-23T04:59:41.167Z,1017.8
2023-02-23T05:05:08.377Z,1017.8
2023-02-23T05:10:24.301Z,1017.7
2023-02-23T05:16:10.779Z,1017.6
2023-02-23T05:21:51.103Z,1017.6
2023-02-23T05:27:11.570Z,1017.7
2023-02-23T05:32:47.154Z,1017.6
2023-02-23T05:38:34.606Z,1017.6
2023-02-23T05:43:54.942Z,1017.6
2023-02-23T05:49:20.506Z,1017.5
2023-02-23T05:55:12.315Z,1017.5
2023-02-23T06:00:40.232Z,1017.5
2023-02-23T06:06:07.693Z,1017.6
2023-02-23T06:11:56.470Z,1017.6
2023-02-23T06:17:22.642Z,1017.5
2023-02-23T06:22:39.364Z,1017.5
2023-02-23T06:28:22.804Z,1017.6
2023-02-23T06:33:56.338Z,1017.7
2023-02-23T06:39:23.252Z,1017.7
2023-02-23T06:45:09.762Z,1017.7
2023-02-23T06:50:29.943Z,1017.9
2023-02-23T06:56:06.598Z,1017.7
2023-02-23T07:01:48.352Z,1017.8
2023-02-23T07:07:07.950Z,1017.8
2023-02-23T07:12:37.172Z,1017.8
2023-02-23T07:18:30.282Z,1018
2023-02-23T07:23:50.904Z,1018
2023-02-23T07:29:42.821Z,1017.9
2023-02-23T07:35:00.586Z,1018.1
2023-02-23T07:40:32.030Z,1018.1
2023-02-23T07:46:16.614Z,1018.2
2023-02-23T07:51:33.743Z,1018.2
2023-02-23T07:57:21.595Z,1018.2
2023-02-23T08:02:49.538Z,1018.1
2023-02-23T08:08:17.237Z,1018.2
2023-02-23T08:13:49.066Z,1018.3
2023-02-23T08:19:25.509Z,1018.2
2023-02-23T08:25:05.821Z,1018.1
2023-02-23T08:30:28.239Z,1018.1
2023-02-23T08:36:14.909Z,1018
2023-02-23T08:41:56.107Z,1018
2023-02-23T08:47:23.815Z,1017.9
2023-02-23T08:53:01.193Z,1018
2023-02-23T08:58:37.049Z,1018
2023-02-23T09:04:00.744Z,1018
2023-02-23T09:09:27.032Z,1017.9
2023-02-23T09:14:56.199Z,1017.9
2023-02-23T09:20:37.910Z,1017.8
2023-02-23T09:26:21.328Z,1017.8
2023-02-23T09:31:40.387Z,1017.7
2023-02-23T09:37:29.788Z,1017.7
2023-02-23T09:43:07.947Z,1017.7
2023-02-23T09:48:38.329Z,1017.8
2023-02-23T09:53:56.298Z,1017.8
2023-02-23T09:59:29.108Z,1017.8
2023-02-23T10:05:09.474Z,1017.9
2023-02-23T10:10:58.440Z,1017.8
2023-02-23T10:16:17.848Z,1017.7
2023-02-23T10:21:45.291Z,1017.6
2023-02-23T10:27:27.295Z,1017.6
2023-02-23T10:33:07.569Z,1017.3
2023-02-23T10:38:36.396Z,1017.2
2023-02-23T10:44:26.400Z,1017.1
2023-02-23T10:49:57.793Z,1016.9
2023-02-23T10:55:14.879Z,1016.6
2023-02-23T11:00:50.930Z,1016.3
2023-02-23T11:06:40.117Z,1016.4
2023-02-23T12:19:08.491Z,1014.8
2023-02-23T12:24:57.861Z,1014.9
2023-02-23T12:41:21.592Z,1014.6
2023-02-23T15:02:06.659Z,1013.7
2023-02-23T15:24:47.639Z,1013.5
2023-02-23T15:41:35.979Z,1013.4
2023-02-23T17:10:55.133Z,1014.8
2023-02-23T17:16:24.022Z,1014.9
2023-02-23T17:22:14.699Z,1014.9
2023-02-23T17:27:26.088Z,1014.9
2023-02-23T17:33:19.662Z,1014.8
2023-02-23T17:38:50.483Z,1014.8
2023-02-23T17:44:16.118Z,1014.8
2023-02-23T17:55:17.452Z,1015.5
2023-02-23T18:23:36.009Z,1016.1
2023-02-23T18:28:43.305Z,1016.1
2023-02-23T18:34:33.310Z,1016.3
2023-02-23T18:39:53.119Z,1016.1
2023-02-23T18:45:40.650Z,1016
2023-02-23T18:51:20.122Z,1015.9
2023-02-23T18:56:42.369Z,1015.8
2023-02-23T19:02:26.779Z,1015.9
2023-02-23T19:07:41.789Z,1015.8
2023-02-23T19:13:23.023Z,1016
2023-02-23T19:19:14.024Z,1015.9
2023-02-23T19:24:30.178Z,1015.7
2023-02-23T19:30:22.393Z,1015.7
2023-02-23T19:36:00.297Z,1015.7
2023-02-23T19:46:51.981Z,1015.8
2023-02-23T19:52:42.632Z,1015.9
2023-02-23T19:58:18.703Z,1015.7
2023-02-23T20:03:28.615Z,1015.7
2023-02-23T20:09:12.579Z,1015.8
2023-02-23T20:14:49.971Z,1016.1
2023-02-23T20:20:07.940Z,1016.2
2023-02-23T20:25:42.655Z,1016.3
2023-02-23T20:31:14.837Z,1016.4
2023-02-23T20:37:15.983Z,1016.5
2023-02-23T20:42:47.553Z,1016.6
2023-02-23T20:48:14.934Z,1016.6
2023-02-23T20:53:53.096Z,1016.6
2023-02-23T20:59:18.540Z,1016.5
2023-02-23T21:04:53.227Z,1016.5
2023-02-23T21:10:35.868Z,1016.5
2023-02-23T21:15:52.647Z,1016.4
2023-02-23T21:21:41.510Z,1016.4
2023-02-23T21:26:56.222Z,1016.1
2023-02-23T21:32:41.592Z,1016.1
2023-02-23T21:38:15.882Z,1015.9
2023-02-23T21:43:58.443Z,1015.9
2023-02-23T21:49:13.372Z,1015.9
2023-02-23T21:54:53.598Z,1016.1
2023-02-23T22:00:30.842Z,1016.4
2023-02-23T22:05:56.959Z,1016.4
2023-02-23T22:11:38.678Z,1016.3
2023-02-23T22:17:10.963Z,1016.4
2023-02-23T22:22:40.742Z,1016.5
2023-02-23T22:28:24.337Z,1016.4
2023-02-23T22:33:52.822Z,1016.3
2023-02-23T22:39:12.106Z,1016.2
2023-02-23T22:44:39.517Z,1016.1
2023-02-23T22:50:37.688Z,1016.3
2023-02-23T22:55:55.281Z,1016.4
2023-02-23T23:01:19.206Z,1016.3
2023-02-23T23:06:56.642Z,1016.4
2023-02-23T23:12:53.769Z,1016.3
2023-02-23T23:18:09.985Z,1016.2
2023-02-23T23:23:56.439Z,1016.1
2023-02-23T23:29:07.113Z,1016.1
2023-02-23T23:34:41.014Z,1016.2
2023-02-23T23:40:22.673Z,1016
2023-02-23T23:46:09.578Z,1015.7
2023-02-23T23:51:48.010Z,1015.8
2023-02-23T23:56:57.518Z,1015.8
